Time;durP1;ratioP1;P1;durP2;ratioP2;P2;SDS_P1;SDS_P2;PMS_P1;PMS_P2;Temp;Humidity;BMP_temperature;BMP_pressure;BME280_temperature;BME280_humidity;BME280_pressure;Samples;Min_cycle;Max_cycle;Signal;HPM_P1;HPM_P2
2022/12/10 00:01:35;;;;;;;19.30;10.82;;;1.10;99.90;;;;;;4992255;28;20251;-64
2022/12/10 00:04:04;;;;;;;16.65;9.98;;;1.10;99.90;;;;;;4992985;28;20207;-63
2022/12/10 00:06:32;;;;;;;16.70;12.10;;;1.10;99.90;;;;;;4992526;28;20311;-63
2022/12/10 00:09:00;;;;;;;16.17;10.95;;;1.00;99.90;;;;;;4992794;28;20203;-64
2022/12/10 00:11:27;;;;;;;24.15;11.93;;;1.00;99.90;;;;;;4992061;28;20223;-64
2022/12/10 00:13:54;;;;;;;17.40;11.88;;;1.00;99.90;;;;;;4992802;28;20599;-64
2022/12/10 00:16:23;;;;;;;19.75;11.80;;;1.00;99.90;;;;;;4992356;28;20203;-63
2022/12/10 00:18:51;;;;;;;18.83;12.02;;;1.00;99.90;;;;;;4992644;28;20210;-64
2022/12/10 00:21:21;;;;;;;17.55;11.10;;;1.10;99.90;;;;;;4991721;28;20583;-63
2022/12/10 00:23:49;;;;;;;19.95;11.40;;;1.10;99.90;;;;;;4992474;28;20203;-64
2022/12/10 00:26:18;;;;;;;21.30;11.77;;;1.00;99.90;;;;;;4992140;28;20225;-63
2022/12/10 00:28:46;;;;;;;20.52;12.27;;;1.10;99.90;;;;;;4992583;28;20204;-63
2022/12/10 00:31:15;;;;;;;20.98;11.02;;;1.10;99.90;;;;;;4991597;28;20658;-64
2022/12/10 00:33:43;;;;;;;16.10;9.57;;;1.00;99.90;;;;;;4992378;28;20602;-63
2022/12/10 00:36:11;;;;;;;18.75;10.32;;;1.00;99.90;;;;;;4992081;28;20207;-64
2022/12/10 00:38:41;;;;;;;14.90;9.85;;;1.00;99.90;;;;;;4992221;28;20204;-63
2022/12/10 00:41:08;;;;;;;18.67;11.82;;;1.00;99.90;;;;;;4991448;28;20327;-64
2022/12/10 00:43:35;;;;;;;16.00;11.82;;;1.10;99.90;;;;;;4992080;28;20204;-64
2022/12/10 00:46:03;;;;;;;20.15;11.60;;;1.10;99.90;;;;;;4992142;28;20207;-64
2022/12/10 00:48:30;;;;;;;14.57;9.77;;;1.10;99.90;;;;;;4991865;28;20753;-64
2022/12/10 00:50:58;;;;;;;17.55;10.95;;;1.10;99.90;;;;;;4991474;28;20838;-64
2022/12/10 00:53:25;;;;;;;15.57;9.02;;;1.10;99.90;;;;;;4991180;28;20234;-64
2022/12/10 00:55:54;;;;;;;18.23;10.77;;;1.10;99.90;;;;;;4991997;28;20222;-64
2022/12/10 00:58:21;;;;;;;17.85;10.65;;;1.00;99.90;;;;;;4991808;28;20228;-64
2022/12/10 01:00:48;;;;;;;15.13;9.25;;;1.00;99.90;;;;;;4991093;28;20210;-63
2022/12/10 01:03:15;;;;;;;20.77;11.10;;;1.00;99.90;;;;;;4991672;28;20723;-63
2022/12/10 01:05:42;;;;;;;15.85;11.98;;;1.00;99.90;;;;;;4992091;28;20600;-63
2022/12/10 01:08:09;;;;;;;16.23;11.00;;;1.00;99.90;;;;;;4991642;28;20229;-63
2022/12/10 01:10:35;;;;;;;17.25;10.45;;;1.10;99.90;;;;;;4991125;28;20211;-63
2022/12/10 01:13:04;;;;;;;20.13;12.25;;;1.00;99.90;;;;;;4991686;28;20195;-63
2022/12/10 01:15:31;;;;;;;15.65;11.30;;;1.00;99.90;;;;;;4991558;28;20602;-63
2022/12/10 01:17:58;;;;;;;21.88;11.68;;;1.10;99.90;;;;;;4991737;28;20227;-63
2022/12/10 01:20:25;;;;;;;16.15;11.65;;;1.10;99.90;;;;;;4990756;28;20690;-62
2022/12/10 01:22:51;;;;;;;19.02;11.15;;;1.10;99.90;;;;;;4991539;28;20224;-62
2022/12/10 01:25:18;;;;;;;16.75;9.80;;;1.10;99.90;;;;;;4991248;28;20203;-63
2022/12/10 01:27:45;;;;;;;18.05;10.10;;;1.10;99.90;;;;;;4991562;28;20618;-63
2022/12/10 01:30:13;;;;;;;18.58;10.30;;;1.10;99.90;;;;;;4991167;28;20211;-62
2022/12/10 01:32:40;;;;;;;16.60;10.70;;;1.00;99.90;;;;;;4991178;28;20207;-63
2022/12/10 01:35:07;;;;;;;17.75;11.10;;;1.10;99.90;;;;;;4991456;28;20575;-63
2022/12/10 01:37:34;;;;;;;19.30;11.27;;;1.10;99.90;;;;;;4991275;28;20321;-63
2022/12/10 01:40:01;;;;;;;20.10;10.75;;;1.10;99.90;;;;;;4991354;28;20681;-63
2022/12/10 01:42:28;;;;;;;16.52;12.00;;;1.10;99.90;;;;;;4990588;28;20261;-63
2022/12/10 01:45:07;;;;;;;16.90;10.82;;;1.10;99.90;;;;;;4991424;28;20215;-62
2022/12/10 01:47:35;;;;;;;16.67;10.27;;;1.10;99.90;;;;;;4991058;28;20285;-63
2022/12/10 01:50:02;;;;;;;16.40;9.98;;;1.10;99.90;;;;;;4991157;28;20214;-63
2022/12/10 01:52:29;;;;;;;15.32;9.40;;;1.10;99.90;;;;;;4990520;28;20216;-63
2022/12/10 01:54:56;;;;;;;23.08;12.07;;;1.10;99.90;;;;;;4991212;28;20295;-63
2022/12/10 01:57:24;;;;;;;18.17;10.85;;;1.10;99.90;;;;;;4990986;28;20224;-63
2022/12/10 01:59:56;;;;;;;20.70;10.90;;;1.10;99.90;;;;;;4991094;28;20618;-63
2022/12/10 02:02:34;;;;;;;18.80;10.23;;;1.10;99.90;;;;;;4990352;28;20231;-63
2022/12/10 02:05:11;;;;;;;15.50;9.85;;;1.10;99.90;;;;;;4993718;28;20198;-63
2022/12/10 02:07:53;;;;;;;14.20;9.45;;;1.10;99.90;;;;;;4995221;28;20691;-63
2022/12/10 02:10:37;;;;;;;15.73;10.75;;;1.10;99.90;;;;;;4994394;28;20211;-63
2022/12/10 02:13:09;;;;;;;12.05;9.50;;;1.10;99.90;;;;;;4995109;28;20402;-63
2022/12/10 02:15:40;;;;;;;18.40;9.75;;;1.00;99.90;;;;;;4994671;28;20211;-63
2022/12/10 02:18:12;;;;;;;17.48;10.30;;;1.10;99.90;;;;;;4994777;28;20219;-63
2022/12/10 02:20:44;;;;;;;18.52;11.15;;;1.10;99.90;;;;;;4994205;28;20559;-63
2022/12/10 02:23:13;;;;;;;17.42;11.35;;;1.00;99.90;;;;;;4994734;28;20883;-63
2022/12/10 02:25:46;;;;;;;23.80;12.32;;;1.00;99.90;;;;;;4994724;28;20199;-63
2022/12/10 02:28:22;;;;;;;16.60;9.45;;;1.00;99.90;;;;;;4994545;28;20254;-63
2022/12/10 02:30:52;;;;;;;16.95;10.05;;;1.00;99.90;;;;;;4994029;28;20594;-63
2022/12/10 02:33:20;;;;;;;16.95;10.88;;;1.00;99.90;;;;;;4994452;28;20203;-64
2022/12/10 02:35:50;;;;;;;15.65;10.10;;;1.00;99.90;;;;;;4994698;28;20586;-63
2022/12/10 02:38:20;;;;;;;16.50;10.88;;;1.00;99.90;;;;;;4994155;28;20584;-63
2022/12/10 02:40:51;;;;;;;16.65;10.13;;;1.00;99.90;;;;;;4993926;28;20210;-63
2022/12/10 02:43:18;;;;;;;17.05;10.88;;;0.90;99.90;;;;;;4994208;28;20612;-63
2022/12/10 02:45:45;;;;;;;21.83;11.20;;;0.90;99.90;;;;;;4994493;28;20594;-63
2022/12/10 02:48:15;;;;;;;16.80;10.05;;;0.90;99.90;;;;;;4994078;28;20224;-63
2022/12/10 02:50:42;;;;;;;13.18;8.32;;;0.90;99.90;;;;;;4993884;28;20219;-63
2022/12/10 02:53:09;;;;;;;17.10;9.93;;;0.90;99.90;;;;;;4994356;28;20200;-64
2022/12/10 02:55:48;;;;;;;18.95;9.32;;;0.90;99.90;;;;;;4994088;28;20658;-62
2022/12/10 02:58:23;;;;;;;16.88;11.65;;;0.90;99.90;;;;;;4993991;28;20226;-63
2022/12/10 03:00:58;;;;;;;18.23;10.57;;;0.90;99.90;;;;;;4993694;28;20209;-63
2022/12/10 03:03:35;;;;;;;14.52;10.18;;;0.90;99.90;;;;;;4993901;28;20436;-63
2022/12/10 03:06:11;;;;;;;19.27;9.98;;;0.80;99.90;;;;;;4994321;28;20199;-63
2022/12/10 03:08:43;;;;;;;18.13;10.32;;;0.80;99.90;;;;;;4994045;28;20203;-63
2022/12/10 03:11:13;;;;;;;17.52;11.13;;;0.80;99.90;;;;;;4993262;28;20207;-63
2022/12/10 03:13:46;;;;;;;15.45;8.93;;;0.80;99.90;;;;;;4994150;28;20196;-63
2022/12/10 03:16:15;;;;;;;18.83;11.00;;;0.80;99.90;;;;;;4992931;28;20204;-65
2022/12/10 03:18:45;;;;;;;14.32;8.57;;;0.90;99.90;;;;;;4993903;28;20203;-63
2022/12/10 03:21:14;;;;;;;16.38;10.00;;;0.90;99.90;;;;;;4992962;28;20730;-63
2022/12/10 03:23:44;;;;;;;14.40;9.18;;;0.90;99.90;;;;;;4993788;28;20220;-63
2022/12/10 03:26:11;;;;;;;15.90;11.10;;;0.90;99.90;;;;;;4993569;28;20199;-63
2022/12/10 03:28:41;;;;;;;15.75;8.80;;;0.90;99.90;;;;;;4993501;28;20203;-63
2022/12/10 03:31:10;;;;;;;16.55;9.05;;;0.90;99.90;;;;;;4992827;28;20230;-63
2022/12/10 03:33:37;;;;;;;14.73;9.60;;;0.90;99.90;;;;;;4993337;28;20203;-64
2022/12/10 03:36:08;;;;;;;15.73;10.95;;;0.90;99.90;;;;;;4993484;28;20210;-63
2022/12/10 03:38:37;;;;;;;15.18;9.48;;;0.90;99.90;;;;;;4993283;28;20714;-62
2022/12/10 03:41:04;;;;;;;21.40;10.77;;;0.90;99.90;;;;;;4992752;28;20668;-63
2022/12/10 03:43:31;;;;;;;15.45;9.55;;;0.90;99.90;;;;;;4993130;28;20231;-62
2022/12/10 03:45:58;;;;;;;14.73;9.45;;;0.90;99.90;;;;;;4993432;28;20206;-62
2022/12/10 03:48:24;;;;;;;16.08;10.27;;;0.80;99.90;;;;;;4993129;28;20313;-63
2022/12/10 03:50:51;;;;;;;19.42;11.30;;;0.90;99.90;;;;;;4992798;28;20199;-63
2022/12/10 03:53:19;;;;;;;15.48;10.10;;;0.80;99.90;;;;;;4993053;28;20212;-63
2022/12/10 03:55:46;;;;;;;18.13;10.50;;;0.90;99.90;;;;;;4993289;28;20603;-63
2022/12/10 03:58:13;;;;;;;15.52;10.50;;;0.90;99.90;;;;;;4992959;28;20318;-63
2022/12/10 04:00:40;;;;;;;16.83;10.88;;;0.90;99.90;;;;;;4992288;28;20705;-62
2022/12/10 04:03:07;;;;;;;20.30;9.38;;;0.90;99.90;;;;;;4992924;28;20270;-63
2022/12/10 04:05:34;;;;;;;12.90;10.23;;;0.90;99.90;;;;;;4992728;28;20203;-63
2022/12/10 04:08:00;;;;;;;16.50;10.18;;;0.90;99.90;;;;;;4992835;28;20228;-63
2022/12/10 04:10:28;;;;;;;15.55;9.70;;;0.90;99.90;;;;;;4992211;28;20203;-63
2022/12/10 04:18:23;;;;;;;13.93;9.35;;;0.90;99.90;;;;;;4992303;28;20225;-63
2022/12/10 04:29:05;;;;;;;15.32;9.65;;;0.90;99.90;;;;;;4992348;28;20574;-63
2022/12/10 04:31:32;;;;;;;16.73;10.80;;;0.90;99.90;;;;;;4991680;28;20207;-63
2022/12/10 04:33:59;;;;;;;16.95;10.15;;;1.00;99.90;;;;;;4992425;28;20550;-63
2022/12/10 04:36:26;;;;;;;11.15;8.10;;;0.90;99.90;;;;;;4992035;28;20207;-63
2022/12/10 04:38:52;;;;;;;12.50;9.20;;;0.90;99.90;;;;;;4992332;28;20203;-63
2022/12/10 04:41:20;;;;;;;17.30;10.20;;;0.90;99.90;;;;;;4991439;28;20210;-63
2022/12/10 04:43:47;;;;;;;12.13;9.45;;;0.90;99.90;;;;;;4992189;28;20223;-63
2022/12/10 04:46:14;;;;;;;16.70;9.63;;;0.90;99.90;;;;;;4991904;28;20204;-63
2022/12/10 04:48:40;;;;;;;15.35;9.13;;;0.90;99.90;;;;;;4992054;28;20202;-63
2022/12/10 04:51:07;;;;;;;19.70;10.10;;;0.90;99.90;;;;;;4991526;28;20210;-63
2022/12/10 04:53:34;;;;;;;15.77;9.52;;;0.90;99.90;;;;;;4991852;28;20206;-63
2022/12/10 04:56:01;;;;;;;12.82;10.00;;;0.80;99.90;;;;;;4992022;28;20920;-63
2022/12/10 04:58:30;;;;;;;15.90;10.25;;;0.90;99.90;;;;;;4991647;28;20291;-63
2022/12/10 05:01:02;;;;;;;19.83;11.45;;;0.80;99.90;;;;;;4991323;28;20302;-63
2022/12/10 05:03:29;;;;;;;14.25;10.70;;;0.80;99.90;;;;;;4991570;28;20226;-63
2022/12/10 05:05:56;;;;;;;14.75;9.88;;;0.80;99.90;;;;;;4991952;28;20210;-63
2022/12/10 05:08:23;;;;;;;17.25;10.20;;;0.90;99.90;;;;;;4991484;28;20230;-63
2022/12/10 05:10:49;;;;;;;19.65;10.55;;;0.90;99.90;;;;;;4991159;28;20207;-63
2022/12/10 05:13:16;;;;;;;13.15;9.25;;;0.90;99.90;;;;;;4991488;28;20211;-63
2022/12/10 05:15:44;;;;;;;13.30;9.35;;;0.90;99.90;;;;;;4991724;28;20574;-63
2022/12/10 05:18:11;;;;;;;12.98;8.25;;;0.90;99.90;;;;;;4991352;28;20737;-63
2022/12/10 05:20:38;;;;;;;12.82;9.35;;;0.80;99.90;;;;;;4991205;28;20203;-63
2022/12/10 05:25:53;;;;;;;16.02;9.23;;;0.80;99.90;;;;;;4984578;28;20200;-63
2022/12/10 05:28:20;;;;;;;14.18;9.15;;;0.80;99.90;;;;;;4991204;28;20756;-63
2022/12/10 05:30:48;;;;;;;13.35;10.95;;;0.80;99.90;;;;;;4990663;28;20234;-63
2022/12/10 05:33:15;;;;;;;18.90;9.15;;;0.80;99.90;;;;;;4991424;28;20697;-63
2022/12/10 05:35:42;;;;;;;13.85;8.95;;;0.80;99.90;;;;;;4991444;28;20210;-63
2022/12/10 05:38:10;;;;;;;13.48;8.75;;;0.80;99.90;;;;;;4997183;28;20222;-63
2022/12/10 05:40:37;;;;;;;12.63;8.63;;;0.80;99.90;;;;;;4999228;28;20289;-63
2022/12/10 05:43:04;;;;;;;17.25;10.23;;;0.80;99.90;;;;;;5001448;28;20219;-63
2022/12/10 05:45:33;;;;;;;16.52;10.07;;;0.70;99.90;;;;;;5000090;28;20199;-63
2022/12/10 05:48:01;;;;;;;18.20;9.77;;;0.70;99.90;;;;;;4999729;28;20222;-63
2022/12/10 05:50:28;;;;;;;13.38;9.85;;;0.70;99.90;;;;;;5000769;28;20218;-63
2022/12/10 05:52:55;;;;;;;14.35;9.55;;;0.70;99.90;;;;;;5000904;28;20218;-63
2022/12/10 05:55:21;;;;;;;15.00;10.20;;;0.70;99.90;;;;;;4999170;28;20203;-63
2022/12/10 05:57:48;;;;;;;15.60;9.13;;;0.60;99.90;;;;;;5001003;28;20306;-63
2022/12/10 06:00:15;;;;;;;15.43;10.52;;;0.60;99.90;;;;;;5000187;28;20205;-63
2022/12/10 06:02:42;;;;;;;18.08;10.02;;;0.60;99.90;;;;;;4999195;28;20222;-64
2022/12/10 06:05:10;;;;;;;16.42;10.15;;;0.60;99.90;;;;;;5001006;28;20680;-63
2022/12/10 06:07:37;;;;;;;11.70;7.75;;;0.60;99.90;;;;;;5000699;28;20230;-63
2022/12/10 06:10:05;;;;;;;17.10;10.10;;;0.50;99.90;;;;;;4999185;28;20291;-63
2022/12/10 06:12:31;;;;;;;15.73;8.88;;;0.50;99.90;;;;;;4999979;28;20190;-63
2022/12/10 06:14:58;;;;;;;15.88;10.20;;;0.50;99.90;;;;;;5001020;28;20597;-63
2022/12/10 06:17:25;;;;;;;16.00;9.73;;;0.40;99.90;;;;;;4998913;28;20211;-63
2022/12/10 06:19:52;;;;;;;14.30;9.13;;;0.40;99.90;;;;;;5000515;28;20203;-63
2022/12/10 06:22:20;;;;;;;17.75;10.93;;;0.40;99.90;;;;;;5000159;28;20195;-63
2022/12/10 06:24:46;;;;;;;16.25;9.77;;;0.50;99.90;;;;;;5008439;28;20203;-63
2022/12/10 06:27:13;;;;;;;20.13;14.15;;;0.50;99.90;;;;;;5029014;28;20453;-62
2022/12/10 06:29:41;;;;;;;13.70;10.18;;;0.50;99.90;;;;;;5030167;28;20289;-63
2022/12/10 06:32:08;;;;;;;16.58;10.95;;;0.50;99.90;;;;;;5029583;28;20203;-62
2022/12/10 06:34:34;;;;;;;17.50;10.45;;;0.50;99.90;;;;;;5029934;28;20194;-62
2022/12/10 06:37:01;;;;;;;14.77;9.18;;;0.50;99.90;;;;;;5030285;28;20232;-63
2022/12/10 06:39:29;;;;;;;14.15;9.45;;;0.50;99.90;;;;;;5030000;28;20293;-62
2022/12/10 06:41:56;;;;;;;18.27;10.05;;;0.50;99.90;;;;;;5029895;28;20581;-63
2022/12/10 06:44:22;;;;;;;18.75;10.18;;;0.50;99.90;;;;;;5029872;28;20228;-63
2022/12/10 06:46:49;;;;;;;15.13;8.65;;;0.50;99.90;;;;;;5030049;28;20225;-62
2022/12/10 06:49:16;;;;;;;14.38;8.93;;;0.40;99.90;;;;;;5030047;28;20225;-62
2022/12/10 06:51:43;;;;;;;15.25;9.98;;;0.40;99.90;;;;;;5031417;28;20203;-62
2022/12/10 06:54:09;;;;;;;21.92;12.15;;;0.40;99.90;;;;;;5033777;28;20565;-62
2022/12/10 06:56:37;;;;;;;17.38;9.20;;;0.40;99.90;;;;;;5033374;28;20231;-62
2022/12/10 06:59:06;;;;;;;18.00;10.13;;;0.40;99.90;;;;;;5033832;28;20201;-63
2022/12/10 07:01:33;;;;;;;14.60;10.27;;;0.30;99.90;;;;;;5032962;28;20746;-62
2022/12/10 07:03:59;;;;;;;17.30;11.43;;;0.30;99.90;;;;;;5033472;28;20234;-62
2022/12/10 07:06:27;;;;;;;19.05;11.45;;;0.30;99.90;;;;;;5032952;28;20415;-62
2022/12/10 07:08:55;;;;;;;18.52;12.15;;;0.30;99.90;;;;;;5033194;28;20206;-62
2022/12/10 07:11:23;;;;;;;20.92;11.25;;;0.20;99.90;;;;;;5075512;22;20236;-92
2022/12/10 07:13:52;;;;;;;13.45;9.00;;;0.20;99.90;;;;;;5031161;28;20179;-91
2022/12/10 07:16:22;;;;;;;14.07;10.02;;;0.20;99.90;;;;;;5022135;28;20207;-93
2022/12/10 07:18:50;;;;;;;17.45;9.75;;;0.20;99.90;;;;;;5023194;28;20290;-94
2022/12/10 07:21:18;;;;;;;13.00;9.98;;;0.20;99.90;;;;;;5031256;28;20229;-91
2022/12/10 07:23:45;;;;;;;14.30;9.32;;;0.20;99.90;;;;;;5033516;28;20257;-94
2022/12/10 07:26:12;;;;;;;19.20;10.68;;;0.20;99.90;;;;;;5034506;28;20190;-92
2022/12/10 07:28:39;;;;;;;17.02;10.75;;;0.30;99.90;;;;;;5038572;28;20306;-92
2022/12/10 07:31:09;;;;;;;17.92;10.68;;;0.30;99.90;;;;;;5038232;28;20234;-92
2022/12/10 07:33:36;;;;;;;18.67;9.85;;;0.30;99.90;;;;;;5038282;28;20205;-92
2022/12/10 07:36:05;;;;;;;17.42;11.23;;;0.30;99.90;;;;;;5038773;28;20265;-92
2022/12/10 07:38:32;;;;;;;15.65;10.30;;;0.50;99.90;;;;;;5048398;23;20214;-69
2022/12/10 07:40:59;;;;;;;17.40;11.15;;;0.50;99.90;;;;;;5011732;28;20218;-69
2022/12/10 07:43:26;;;;;;;18.52;12.25;;;0.50;99.90;;;;;;5015196;28;20887;-68
2022/12/10 07:45:52;;;;;;;16.52;9.57;;;0.50;99.90;;;;;;5013826;28;20202;-68
2022/12/10 07:48:21;;;;;;;16.83;10.55;;;0.50;99.90;;;;;;4995145;28;20595;-68
2022/12/10 07:50:48;;;;;;;23.33;11.27;;;0.50;99.90;;;;;;4991895;28;20262;-69
2022/12/10 07:53:14;;;;;;;18.77;12.05;;;0.60;99.90;;;;;;4992864;28;20702;-69
2022/12/10 07:55:41;;;;;;;17.10;10.38;;;0.60;99.90;;;;;;4993118;28;20214;-69
2022/12/10 07:58:08;;;;;;;19.52;11.32;;;0.60;99.90;;;;;;4993219;28;20224;-69
2022/12/10 08:00:35;;;;;;;13.80;9.48;;;0.60;99.90;;;;;;4992332;28;20214;-69
2022/12/10 08:03:01;;;;;;;15.68;9.98;;;0.60;99.90;;;;;;4992672;28;20223;-69
2022/12/10 08:05:29;;;;;;;19.23;11.50;;;0.60;99.90;;;;;;4992677;28;20596;-69
2022/12/10 08:07:56;;;;;;;16.88;10.40;;;0.60;99.90;;;;;;4992468;28;20224;-69
2022/12/10 08:10:23;;;;;;;19.05;10.90;;;0.60;99.90;;;;;;4992057;28;20291;-69
2022/12/10 08:12:49;;;;;;;14.93;9.88;;;0.60;99.90;;;;;;4993353;28;20203;-69
2022/12/10 08:15:16;;;;;;;12.43;9.18;;;0.70;99.90;;;;;;4992692;28;20209;-69
2022/12/10 08:17:43;;;;;;;16.70;9.20;;;0.70;99.90;;;;;;4992094;28;20223;-69
2022/12/10 08:20:10;;;;;;;17.23;10.45;;;0.70;99.90;;;;;;4992400;28;20207;-69
2022/12/10 08:22:39;;;;;;;14.90;11.05;;;0.70;99.90;;;;;;4992255;28;20203;-69
2022/12/10 08:25:06;;;;;;;21.10;11.27;;;0.70;99.90;;;;;;4992681;28;20319;-69
2022/12/10 08:27:33;;;;;;;16.92;9.02;;;0.70;99.90;;;;;;4992246;28;20246;-68
2022/12/10 08:30:00;;;;;;;14.00;9.10;;;0.70;99.90;;;;;;4992306;28;20214;-68
2022/12/10 08:32:27;;;;;;;16.50;10.88;;;0.80;99.90;;;;;;4991820;28;20311;-68
2022/12/10 08:34:53;;;;;;;16.27;9.63;;;0.80;99.90;;;;;;4992330;28;20206;-68
2022/12/10 08:37:20;;;;;;;19.60;11.10;;;0.80;99.90;;;;;;4992079;28;20223;-68
2022/12/10 08:39:48;;;;;;;19.20;11.10;;;0.90;99.90;;;;;;4992055;28;20219;-68
2022/12/10 08:42:15;;;;;;;16.50;10.82;;;0.90;99.90;;;;;;4991794;28;20222;-69
2022/12/10 08:44:42;;;;;;;20.05;10.90;;;0.90;99.90;;;;;;4992203;28;20233;-68
2022/12/10 08:47:09;;;;;;;20.58;12.63;;;0.90;99.90;;;;;;4992188;28;20303;-68
2022/12/10 08:49:36;;;;;;;18.10;11.85;;;0.90;99.90;;;;;;4992435;28;20564;-68
2022/12/10 08:52:02;;;;;;;12.75;9.52;;;1.00;99.90;;;;;;4991280;28;20203;-68
2022/12/10 08:54:29;;;;;;;18.98;10.30;;;1.00;99.90;;;;;;4991861;28;20208;-68
2022/12/10 08:56:57;;;;;;;16.55;10.23;;;1.00;99.90;;;;;;4991990;28;20229;-68
2022/12/10 08:59:24;;;;;;;15.70;10.15;;;1.00;99.90;;;;;;4991828;28;20642;-68
2022/12/10 09:01:52;;;;;;;16.50;10.18;;;0.90;99.90;;;;;;4991385;28;20207;-68
2022/12/10 09:04:19;;;;;;;16.98;10.52;;;1.00;99.90;;;;;;4991583;28;20226;-68
2022/12/10 09:06:46;;;;;;;17.95;9.75;;;1.00;99.90;;;;;;4991641;28;20227;-68
2022/12/10 09:09:13;;;;;;;20.33;12.07;;;1.00;99.90;;;;;;4991465;28;20277;-69
2022/12/10 09:11:39;;;;;;;19.92;9.98;;;1.00;99.90;;;;;;4991257;28;20211;-68
2022/12/10 09:14:07;;;;;;;19.45;9.10;;;1.00;99.90;;;;;;4991166;28;20210;-68
2022/12/10 09:16:36;;;;;;;13.57;9.10;;;1.10;99.90;;;;;;4991470;28;20223;-68
2022/12/10 09:19:04;;;;;;;16.00;10.32;;;1.10;99.90;;;;;;4991422;28;20208;-68
2022/12/10 09:21:31;;;;;;;15.32;9.82;;;1.10;99.90;;;;;;4991170;28;20204;-68
2022/12/10 09:23:59;;;;;;;15.75;9.55;;;1.20;99.90;;;;;;4991616;28;20622;-68
2022/12/10 09:26:26;;;;;;;16.42;10.45;;;1.20;99.90;;;;;;4991193;28;20210;-68
2022/12/10 09:28:54;;;;;;;18.92;10.45;;;1.30;99.90;;;;;;4991697;28;20210;-68
2022/12/10 09:31:22;;;;;;;19.75;11.10;;;1.20;99.90;;;;;;4990721;28;20212;-68
2022/12/10 09:33:52;;;;;;;18.58;10.85;;;1.10;99.90;;;;;;4991664;28;20205;-68
2022/12/10 09:36:19;;;;;;;18.60;10.73;;;1.20;99.90;;;;;;4991062;28;20216;-68
2022/12/10 09:38:47;;;;;;;20.83;11.15;;;1.30;99.90;;;;;;4991579;28;20218;-69
2022/12/10 09:41:44;;;;;;;15.70;10.43;;;1.30;99.90;;;;;;4990649;28;20199;-68
2022/12/10 09:44:17;;;;;;;15.10;10.07;;;1.30;99.90;;;;;;4990405;28;20226;-68
2022/12/10 09:46:52;;;;;;;16.60;10.65;;;1.30;99.90;;;;;;4991366;28;20579;-67
2022/12/10 09:49:30;;;;;;;15.65;8.77;;;1.20;99.90;;;;;;4991070;28;20207;-69
2022/12/10 09:51:59;;;;;;;13.43;9.02;;;1.20;99.90;;;;;;4990957;28;20211;-70
2022/12/10 09:54:28;;;;;;;18.15;11.93;;;1.20;99.90;;;;;;4991180;28;20195;-69
2022/12/10 09:56:57;;;;;;;19.13;10.52;;;1.20;99.90;;;;;;4991122;28;20220;-69
2022/12/10 09:59:30;;;;;;;16.65;9.75;;;1.20;99.90;;;;;;4990975;28;20199;-69
2022/12/10 10:02:12;;;;;;;15.63;9.25;;;1.20;99.90;;;;;;4990846;28;20214;-69
2022/12/10 10:04:38;;;;;;;16.67;9.98;;;1.10;99.90;;;;;;4991149;28;20226;-69
2022/12/10 10:07:06;;;;;;;15.52;9.05;;;1.20;99.90;;;;;;4991083;28;20227;-69
2022/12/10 10:09:39;;;;;;;16.50;9.88;;;1.10;99.90;;;;;;4991036;28;20271;-69
2022/12/10 10:12:12;;;;;;;16.40;10.27;;;1.20;99.90;;;;;;4990535;28;20326;-69
2022/12/10 10:14:39;;;;;;;18.20;11.40;;;1.20;99.90;;;;;;4991221;28;20199;-69
2022/12/10 10:17:12;;;;;;;16.60;10.80;;;1.30;99.90;;;;;;4990974;28;20725;-69
2022/12/10 10:19:41;;;;;;;14.02;10.13;;;1.30;99.90;;;;;;4990796;28;20206;-68
2022/12/10 10:22:10;;;;;;;17.15;11.55;;;1.30;99.90;;;;;;4990449;28;20218;-69
2022/12/10 10:24:40;;;;;;;15.27;9.85;;;1.30;99.90;;;;;;4991263;28;20227;-69
2022/12/10 10:27:15;;;;;;;21.17;10.77;;;1.40;99.90;;;;;;4994655;28;20250;-69
2022/12/10 10:29:42;;;;;;;19.30;10.30;;;1.30;99.90;;;;;;4994811;28;20206;-69
2022/12/10 10:32:17;;;;;;;17.63;10.77;;;1.30;99.90;;;;;;4994201;28;20204;-69
2022/12/10 10:34:45;;;;;;;14.77;9.95;;;1.40;99.90;;;;;;4994794;28;20199;-69
2022/12/10 10:37:19;;;;;;;18.15;9.65;;;1.30;99.90;;;;;;4994712;28;20232;-69
2022/12/10 10:39:48;;;;;;;11.90;9.40;;;1.40;99.90;;;;;;4994693;28;20220;-69
2022/12/10 10:42:27;;;;;;;16.15;10.13;;;1.40;99.90;;;;;;4993892;28;20737;-69
2022/12/10 10:44:54;;;;;;;13.73;9.50;;;1.40;99.90;;;;;;4994675;28;20226;-69
2022/12/10 10:47:31;;;;;;;14.95;8.88;;;1.50;99.90;;;;;;4994395;28;20238;-69
2022/12/10 10:49:59;;;;;;;16.17;10.00;;;1.60;99.90;;;;;;4994564;28;20213;-69
2022/12/10 10:52:30;;;;;;;15.57;9.98;;;1.70;99.90;;;;;;4993870;28;20211;-69
2022/12/10 10:54:56;;;;;;;16.13;9.90;;;1.80;99.90;;;;;;4994366;28;20199;-69
2022/12/10 10:57:26;;;;;;;15.43;9.30;;;1.90;99.90;;;;;;4994102;28;20250;-69
2022/12/10 10:59:54;;;;;;;14.50;8.95;;;1.90;99.90;;;;;;4994184;28;20208;-69
2022/12/10 11:02:26;;;;;;;15.10;9.55;;;1.90;99.90;;;;;;4993621;28;20230;-69
2022/12/10 11:04:58;;;;;;;14.57;9.32;;;1.80;99.90;;;;;;4994086;28;20242;-69
2022/12/10 11:07:33;;;;;;;19.38;10.35;;;1.80;99.90;;;;;;4993913;28;20243;-69
2022/12/10 11:10:00;;;;;;;12.60;9.43;;;1.80;99.90;;;;;;4994097;28;20208;-69
2022/12/10 11:12:35;;;;;;;20.10;10.65;;;1.70;99.90;;;;;;4993544;28;20222;-69
2022/12/10 11:15:06;;;;;;;13.93;9.98;;;1.80;99.90;;;;;;4994011;28;20210;-69
2022/12/10 11:17:34;;;;;;;15.27;8.38;;;1.80;99.90;;;;;;4993658;28;20234;-69
2022/12/10 11:20:17;;;;;;;16.58;8.85;;;1.90;99.90;;;;;;4993827;28;20214;-69
2022/12/10 11:22:50;;;;;;;12.88;8.85;;;1.90;99.90;;;;;;4993754;28;20579;-69
2022/12/10 11:25:18;;;;;;;12.95;9.10;;;1.90;99.90;;;;;;4993405;28;20253;-69
2022/12/10 11:27:55;;;;;;;14.35;9.25;;;1.90;99.90;;;;;;4993658;28;20227;-69
2022/12/10 11:30:24;;;;;;;11.80;8.07;;;1.90;99.90;;;;;;4992873;28;20199;-68
2022/12/10 11:33:16;;;;;;;14.27;8.30;;;1.90;99.90;;;;;;4993693;28;20204;-69
2022/12/10 11:35:56;;;;;;;12.48;8.15;;;1.90;99.90;;;;;;4993433;28;20196;-69
2022/12/10 11:38:27;;;;;;;14.27;9.90;;;2.00;99.90;;;;;;4992512;28;20234;-69
2022/12/10 11:41:04;;;;;;;15.23;9.40;;;2.00;99.90;;;;;;4992984;28;20203;-69
2022/12/10 11:44:08;;;;;;;14.93;9.60;;;2.00;99.90;;;;;;4993349;28;20203;-69
2022/12/10 11:47:02;;;;;;;14.07;9.95;;;2.10;99.90;;;;;;4993287;28;20238;-69
2022/12/10 11:49:36;;;;;;;14.10;9.73;;;2.10;99.90;;;;;;4993375;28;20222;-69
2022/12/10 11:52:18;;;;;;;17.00;9.43;;;2.10;99.90;;;;;;4992737;28;20203;-69
2022/12/10 11:55:03;;;;;;;15.75;9.75;;;2.20;99.90;;;;;;4993278;28;20685;-69
2022/12/10 11:57:40;;;;;;;14.15;9.30;;;2.10;99.90;;;;;;4993036;28;20330;-69
2022/12/10 12:00:19;;;;;;;15.02;9.55;;;2.10;99.90;;;;;;4993523;28;20218;-69
2022/12/10 12:03:07;;;;;;;13.80;9.60;;;2.20;99.90;;;;;;4993047;28;20214;-69
2022/12/10 12:05:49;;;;;;;14.85;9.18;;;2.10;99.90;;;;;;4992902;28;20228;-69
2022/12/10 12:08:24;;;;;;;14.70;9.52;;;2.10;99.90;;;;;;4992587;28;20228;-69
2022/12/10 12:11:16;;;;;;;24.33;10.73;;;2.10;99.90;;;;;;4993042;28;20202;-69
2022/12/10 12:13:52;;;;;;;19.50;11.32;;;2.20;99.90;;;;;;4993174;28;20200;-69
2022/12/10 12:16:24;;;;;;;19.95;11.25;;;2.10;99.90;;;;;;4992608;28;20207;-69
2022/12/10 12:18:58;;;;;;;18.58;10.55;;;2.10;99.90;;;;;;4993268;28;20543;-69
2022/12/10 12:21:25;;;;;;;20.13;10.30;;;2.10;99.90;;;;;;4992426;28;20211;-69
2022/12/10 12:23:57;;;;;;;14.27;10.10;;;2.10;99.90;;;;;;4993105;28;20203;-69
2022/12/10 12:26:29;;;;;;;12.50;8.77;;;2.20;99.90;;;;;;4992704;28;20203;-69
2022/12/10 12:29:01;;;;;;;14.95;9.77;;;2.20;99.90;;;;;;4993098;28;20301;-69
2022/12/10 12:31:34;;;;;;;12.10;8.15;;;2.10;99.90;;;;;;4992266;28;20211;-69
2022/12/10 12:34:05;;;;;;;12.35;8.50;;;2.10;99.90;;;;;;4992931;28;20207;-69
2022/12/10 12:36:35;;;;;;;17.15;10.43;;;2.10;99.90;;;;;;4993543;28;20227;-69
2022/12/10 12:39:09;;;;;;;12.95;8.95;;;2.00;99.90;;;;;;4992350;28;20221;-69
2022/12/10 12:41:42;;;;;;;15.07;8.63;;;2.10;99.90;;;;;;4992039;28;20202;-69
2022/12/10 12:44:18;;;;;;;14.90;9.15;;;2.10;99.90;;;;;;4992339;28;20233;-69
2022/12/10 12:49:20;;;;;;;14.60;9.25;;;2.20;99.90;;;;;;5003034;28;20206;-69
2022/12/10 12:51:52;;;;;;;11.65;8.10;;;2.20;99.90;;;;;;5031187;28;20209;-69
2022/12/10 12:54:21;;;;;;;12.65;8.75;;;2.20;99.90;;;;;;5031578;28;20205;-69
2022/12/10 12:56:58;;;;;;;12.98;8.15;;;2.20;99.90;;;;;;5031561;28;20226;-69
2022/12/10 12:59:37;;;;;;;14.52;8.88;;;2.20;99.90;;;;;;5031355;28;20240;-69
2022/12/10 13:02:15;;;;;;;13.40;8.18;;;2.20;99.90;;;;;;5031015;28;20205;-69
2022/12/10 13:04:43;;;;;;;10.75;7.75;;;2.20;99.90;;;;;;5031291;28;20229;-69
2022/12/10 13:07:25;;;;;;;12.40;7.95;;;2.30;99.90;;;;;;5031084;28;20222;-69
2022/12/10 13:12:32;;;;;;;11.98;8.73;;;2.20;99.90;;;;;;4923877;23;20242;-66
2022/12/10 13:15:15;;;;;;;10.65;7.85;;;2.10;99.90;;;;;;5011381;28;20199;-66